sensor_id;sensor_type;location;lat;lon;timestamp;temperature;humidity
22081;DHT22;11207;59.512;18.050;2023-03-01T00:01:52;0.40;99.90
22081;DHT22;11207;59.512;18.050;2023-03-01T00:04:18;0.40;99.90
22081;DHT22;11207;59.512;18.050;2023-03-01T00:06:43;0.30;99.90
22081;DHT22;11207;59.512;18.050;2023-03-01T00:09:13;0.30;99.90
22081;DHT22;11207;59.512;18.050;2023-03-01T00:11:39;0.30;99.90
22081;DHT22;11207;59.512;18.050;2023-03-01T00:14:05;0.30;99.90
22081;DHT22;11207;59.512;18.050;2023-03-01T00:16:34;0.30;99.90
22081;DHT22;11207;59.512;18.050;2023-03-01T00:19:00;0.30;99.90
22081;DHT22;11207;59.512;18.050;2023-03-01T00:21:27;0.30;99.90
22081;DHT22;11207;59.512;18.050;2023-03-01T00:23:53;0.20;99.90
22081;DHT22;11207;59.512;18.050;2023-03-01T00:26:21;0.20;99.90
22081;DHT22;11207;59.512;18.050;2023-03-01T00:28:47;0.20;99.90
22081;DHT22;11207;59.512;18.050;2023-03-01T00:31:18;0.10;99.90
22081;DHT22;11207;59.512;18.050;2023-03-01T00:33:44;0.10;99.90
22081;DHT22;11207;59.512;18.050;2023-03-01T00:36:12;0.10;99.90
22081;DHT22;11207;59.512;18.050;2023-03-01T00:38:39;0.00;99.90
22081;DHT22;11207;59.512;18.050;2023-03-01T00:41:12;-0.10;99.90
22081;DHT22;11207;59.512;18.050;2023-03-01T00:43:38;0.00;99.90
22081;DHT22;11207;59.512;18.050;2023-03-01T00:46:09;-0.10;99.90
22081;DHT22;11207;59.512;18.050;2023-03-01T00:48:36;-0.10;99.90
22081;DHT22;11207;59.512;18.050;2023-03-01T00:51:24;-0.20;99.90
22081;DHT22;11207;59.512;18.050;2023-03-01T00:53:51;-0.20;99.90
22081;DHT22;11207;59.512;18.050;2023-03-01T00:56:19;-0.10;99.90
22081;DHT22;11207;59.512;18.050;2023-03-01T00:58:44;-0.20;99.90
22081;DHT22;11207;59.512;18.050;2023-03-01T01:01:15;-0.20;99.90
22081;DHT22;11207;59.512;18.050;2023-03-01T01:06:16;-0.20;99.90
22081;DHT22;11207;59.512;18.050;2023-03-01T01:08:42;-0.20;99.90
22081;DHT22;11207;59.512;18.050;2023-03-01T01:11:09;-0.20;99.90
22081;DHT22;11207;59.512;18.050;2023-03-01T01:13:36;-0.20;99.90
22081;DHT22;11207;59.512;18.050;2023-03-01T01:16:01;-0.30;99.90
22081;DHT22;11207;59.512;18.050;2023-03-01T01:18:27;-0.30;99.90
22081;DHT22;11207;59.512;18.050;2023-03-01T01:20:53;-0.30;99.90
22081;DHT22;11207;59.512;18.050;2023-03-01T01:23:18;-0.30;99.90
22081;DHT22;11207;59.512;18.050;2023-03-01T01:25:44;-0.40;99.90
22081;DHT22;11207;59.512;18.050;2023-03-01T01:28:09;-0.50;99.90
22081;DHT22;11207;59.512;18.050;2023-03-01T01:30:35;-0.50;99.90
22081;DHT22;11207;59.512;18.050;2023-03-01T01:33:00;-0.50;99.90
22081;DHT22;11207;59.512;18.050;2023-03-01T01:35:27;-0.50;99.90
22081;DHT22;11207;59.512;18.050;2023-03-01T01:37:53;-0.50;99.90
22081;DHT22;11207;59.512;18.050;2023-03-01T01:40:18;-0.50;99.90
22081;DHT22;11207;59.512;18.050;2023-03-01T01:42:44;-0.60;99.90
22081;DHT22;11207;59.512;18.050;2023-03-01T01:45:40;-0.60;99.90
22081;DHT22;11207;59.512;18.050;2023-03-01T01:48:24;-0.60;99.90
22081;DHT22;11207;59.512;18.050;2023-03-01T01:50:59;-0.60;99.90
22081;DHT22;11207;59.512;18.050;2023-03-01T01:53:25;-0.60;99.90
22081;DHT22;11207;59.512;18.050;2023-03-01T01:55:54;-0.60;99.90
22081;DHT22;11207;59.512;18.050;2023-03-01T01:58:24;-0.60;99.90
22081;DHT22;11207;59.512;18.050;2023-03-01T02:00:52;-0.70;99.90
22081;DHT22;11207;59.512;18.050;2023-03-01T02:03:27;-0.70;99.90
22081;DHT22;11207;59.512;18.050;2023-03-01T02:06:01;-0.70;99.90
22081;DHT22;11207;59.512;18.050;2023-03-01T02:08:31;-0.70;99.90
22081;DHT22;11207;59.512;18.050;2023-03-01T02:10:59;-0.70;99.90
22081;DHT22;11207;59.512;18.050;2023-03-01T02:13:30;-0.70;99.90
22081;DHT22;11207;59.512;18.050;2023-03-01T02:15:56;-0.70;99.90
22081;DHT22;11207;59.512;18.050;2023-03-01T02:18:23;-0.70;99.90
22081;DHT22;11207;59.512;18.050;2023-03-01T02:23:15;-0.70;99.90
22081;DHT22;11207;59.512;18.050;2023-03-01T02:28:34;-0.70;99.90
22081;DHT22;11207;59.512;18.050;2023-03-01T02:31:01;-0.80;99.90
22081;DHT22;11207;59.512;18.050;2023-03-01T02:33:45;-0.80;99.90
22081;DHT22;11207;59.512;18.050;2023-03-01T02:36:19;-0.80;99.90
22081;DHT22;11207;59.512;18.050;2023-03-01T02:38:46;-0.80;99.90
22081;DHT22;11207;59.512;18.050;2023-03-01T02:41:15;-0.80;99.90
22081;DHT22;11207;59.512;18.050;2023-03-01T02:43:41;-0.90;99.90
22081;DHT22;11207;59.512;18.050;2023-03-01T02:46:14;-0.90;99.90
22081;DHT22;11207;59.512;18.050;2023-03-01T02:48:48;-0.90;99.90
22081;DHT22;11207;59.512;18.050;2023-03-01T02:54:57;-0.90;99.90
22081;DHT22;11207;59.512;18.050;2023-03-01T02:57:01;-0.90;99.90
22081;DHT22;11207;59.512;18.050;2023-03-01T02:59:31;-0.90;99.90
22081;DHT22;11207;59.512;18.050;2023-03-01T03:02:00;-1.00;99.90
22081;DHT22;11207;59.512;18.050;2023-03-01T03:04:26;-1.00;99.90
22081;DHT22;11207;59.512;18.050;2023-03-01T03:06:52;-1.00;99.90
22081;DHT22;11207;59.512;18.050;2023-03-01T03:09:18;-1.00;99.90
22081;DHT22;11207;59.512;18.050;2023-03-01T03:11:44;-1.00;99.90
22081;DHT22;11207;59.512;18.050;2023-03-01T03:14:12;-1.00;99.90
22081;DHT22;11207;59.512;18.050;2023-03-01T03:16:43;-1.00;99.90
22081;DHT22;11207;59.512;18.050;2023-03-01T03:19:09;-1.00;99.90
22081;DHT22;11207;59.512;18.050;2023-03-01T03:21:35;-1.00;99.90
22081;DHT22;11207;59.512;18.050;2023-03-01T03:24:01;-1.00;99.90
22081;DHT22;11207;59.512;18.050;2023-03-01T03:26:26;-1.00;99.90
22081;DHT22;11207;59.512;18.050;2023-03-01T03:28:52;-1.00;99.90
22081;DHT22;11207;59.512;18.050;2023-03-01T03:31:18;-1.00;99.90
22081;DHT22;11207;59.512;18.050;2023-03-01T03:33:44;-1.10;99.90
22081;DHT22;11207;59.512;18.050;2023-03-01T03:36:09;-1.10;99.90
22081;DHT22;11207;59.512;18.050;2023-03-01T03:38:39;-1.10;99.90
22081;DHT22;11207;59.512;18.050;2023-03-01T03:41:07;-1.10;99.90
22081;DHT22;11207;59.512;18.050;2023-03-01T03:43:36;-1.10;99.90
22081;DHT22;11207;59.512;18.050;2023-03-01T03:46:02;-1.20;99.90
22081;DHT22;11207;59.512;18.050;2023-03-01T03:48:35;-1.20;99.90
22081;DHT22;11207;59.512;18.050;2023-03-01T03:51:02;-1.20;99.90
22081;DHT22;11207;59.512;18.050;2023-03-01T03:53:31;-1.20;99.90
22081;DHT22;11207;59.512;18.050;2023-03-01T03:55:56;-1.20;99.90
22081;DHT22;11207;59.512;18.050;2023-03-01T03:58:23;-1.20;99.90
22081;DHT22;11207;59.512;18.050;2023-03-01T04:00:53;-1.30;99.90
22081;DHT22;11207;59.512;18.050;2023-03-01T04:03:22;-1.30;99.90
22081;DHT22;11207;59.512;18.050;2023-03-01T04:05:48;-1.30;99.90
22081;DHT22;11207;59.512;18.050;2023-03-01T04:08:16;-1.40;99.90
22081;DHT22;11207;59.512;18.050;2023-03-01T04:10:46;-1.40;99.90
22081;DHT22;11207;59.512;18.050;2023-03-01T04:13:15;-1.40;99.90
22081;DHT22;11207;59.512;18.050;2023-03-01T04:15:42;-1.50;99.90
22081;DHT22;11207;59.512;18.050;2023-03-01T04:18:14;-1.50;99.90
22081;DHT22;11207;59.512;18.050;2023-03-01T04:20:40;-1.50;99.90
22081;DHT22;11207;59.512;18.050;2023-03-01T04:23:15;-1.50;99.90
22081;DHT22;11207;59.512;18.050;2023-03-01T04:25:52;-1.50;99.90
22081;DHT22;11207;59.512;18.050;2023-03-01T04:28:24;-1.60;99.90
22081;DHT22;11207;59.512;18.050;2023-03-01T04:30:51;-1.50;99.90
22081;DHT22;11207;59.512;18.050;2023-03-01T04:33:17;-1.60;99.90
22081;DHT22;11207;59.512;18.050;2023-03-01T04:35:43;-1.50;99.90
22081;DHT22;11207;59.512;18.050;2023-03-01T04:38:08;-1.60;99.90
22081;DHT22;11207;59.512;18.050;2023-03-01T04:40:34;-1.60;99.90
22081;DHT22;11207;59.512;18.050;2023-03-01T04:43:00;-1.60;99.90
22081;DHT22;11207;59.512;18.050;2023-03-01T04:45:26;-1.60;99.90
22081;DHT22;11207;59.512;18.050;2023-03-01T04:47:53;-1.60;99.90
22081;DHT22;11207;59.512;18.050;2023-03-01T04:50:19;-1.60;99.90
22081;DHT22;11207;59.512;18.050;2023-03-01T04:52:49;-1.60;99.90
22081;DHT22;11207;59.512;18.050;2023-03-01T04:55:14;-1.60;99.90
22081;DHT22;11207;59.512;18.050;2023-03-01T04:57:40;-1.70;99.90
22081;DHT22;11207;59.512;18.050;2023-03-01T05:00:09;-1.60;99.90
22081;DHT22;11207;59.512;18.050;2023-03-01T05:02:56;-1.60;99.90
22081;DHT22;11207;59.512;18.050;2023-03-01T05:05:28;-1.60;99.90
22081;DHT22;11207;59.512;18.050;2023-03-01T05:08:00;-1.60;99.90
22081;DHT22;11207;59.512;18.050;2023-03-01T05:10:27;-1.60;99.90
22081;DHT22;11207;59.512;18.050;2023-03-01T05:12:56;-1.70;99.90
22081;DHT22;11207;59.512;18.050;2023-03-01T05:15:23;-1.60;99.90
22081;DHT22;11207;59.512;18.050;2023-03-01T05:17:51;-1.70;99.90
22081;DHT22;11207;59.512;18.050;2023-03-01T05:20:17;-1.70;99.90
22081;DHT22;11207;59.512;18.050;2023-03-01T05:22:43;-1.70;99.90
22081;DHT22;11207;59.512;18.050;2023-03-01T05:25:09;-1.70;99.90
22081;DHT22;11207;59.512;18.050;2023-03-01T05:27:35;-1.70;99.90
22081;DHT22;11207;59.512;18.050;2023-03-01T05:30:02;-1.70;99.90
22081;DHT22;11207;59.512;18.050;2023-03-01T05:32:48;-1.70;99.90
22081;DHT22;11207;59.512;18.050;2023-03-01T05:35:16;-1.70;99.90
22081;DHT22;11207;59.512;18.050;2023-03-01T05:37:43;-1.70;99.90
22081;DHT22;11207;59.512;18.050;2023-03-01T05:40:15;-1.70;99.90
22081;DHT22;11207;59.512;18.050;2023-03-01T05:42:46;-1.80;99.90
22081;DHT22;11207;59.512;18.050;2023-03-01T05:45:12;-1.80;99.90
22081;DHT22;11207;59.512;18.050;2023-03-01T05:47:43;-1.80;99.90
22081;DHT22;11207;59.512;18.050;2023-03-01T05:50:23;-1.70;99.90
22081;DHT22;11207;59.512;18.050;2023-03-01T05:52:50;-1.70;99.90
22081;DHT22;11207;59.512;18.050;2023-03-01T05:55:18;-1.70;99.90
22081;DHT22;11207;59.512;18.050;2023-03-01T05:57:45;-1.70;99.90
22081;DHT22;11207;59.512;18.050;2023-03-01T06:00:11;-1.60;99.90
22081;DHT22;11207;59.512;18.050;2023-03-01T06:02:38;-1.60;99.90
22081;DHT22;11207;59.512;18.050;2023-03-01T06:05:05;-1.60;99.90
22081;DHT22;11207;59.512;18.050;2023-03-01T06:07:31;-1.60;99.90
22081;DHT22;11207;59.512;18.050;2023-03-01T06:09:57;-1.60;99.90
22081;DHT22;11207;59.512;18.050;2023-03-01T06:12:22;-1.60;99.90
22081;DHT22;11207;59.512;18.050;2023-03-01T06:14:48;-1.60;99.90
22081;DHT22;11207;59.512;18.050;2023-03-01T06:17:14;-1.50;99.90
22081;DHT22;11207;59.512;18.050;2023-03-01T06:19:39;-1.50;99.90
22081;DHT22;11207;59.512;18.050;2023-03-01T06:22:05;-1.50;99.90
22081;DHT22;11207;59.512;18.050;2023-03-01T06:24:30;-1.50;99.90
22081;DHT22;11207;59.512;18.050;2023-03-01T06:26:56;-1.50;99.90
22081;DHT22;11207;59.512;18.050;2023-03-01T06:29:22;-1.50;99.90
22081;DHT22;11207;59.512;18.050;2023-03-01T06:31:48;-1.50;99.90
22081;DHT22;11207;59.512;18.050;2023-03-01T06:34:14;-1.50;99.90
22081;DHT22;11207;59.512;18.050;2023-03-01T06:36:40;-1.50;99.90
22081;DHT22;11207;59.512;18.050;2023-03-01T06:39:06;-1.50;99.90
22081;DHT22;11207;59.512;18.050;2023-03-01T06:41:32;-1.50;99.90
22081;DHT22;11207;59.512;18.050;2023-03-01T06:43:59;-1.40;99.90
22081;DHT22;11207;59.512;18.050;2023-03-01T06:46:24;-1.40;99.90
22081;DHT22;11207;59.512;18.050;2023-03-01T06:48:50;-1.40;99.90
22081;DHT22;11207;59.512;18.050;2023-03-01T06:51:15;-1.40;99.90
22081;DHT22;11207;59.512;18.050;2023-03-01T06:53:41;-1.30;99.90
22081;DHT22;11207;59.512;18.050;2023-03-01T06:56:06;-1.30;99.90
22081;DHT22;11207;59.512;18.050;2023-03-01T06:58:32;-1.20;99.90
22081;DHT22;11207;59.512;18.050;2023-03-01T07:00:58;-1.20;99.90
22081;DHT22;11207;59.512;18.050;2023-03-01T07:03:23;-1.20;99.90
22081;DHT22;11207;59.512;18.050;2023-03-01T07:05:50;-1.20;99.90
22081;DHT22;11207;59.512;18.050;2023-03-01T07:08:17;-1.10;99.90
22081;DHT22;11207;59.512;18.050;2023-03-01T07:10:43;-1.10;99.90
22081;DHT22;11207;59.512;18.050;2023-03-01T07:13:09;-1.00;99.90
22081;DHT22;11207;59.512;18.050;2023-03-01T07:15:34;-0.90;99.90
22081;DHT22;11207;59.512;18.050;2023-03-01T07:18:00;-0.90;99.90
22081;DHT22;11207;59.512;18.050;2023-03-01T07:20:26;-0.70;99.90
22081;DHT22;11207;59.512;18.050;2023-03-01T07:22:52;-0.70;99.90
22081;DHT22;11207;59.512;18.050;2023-03-01T07:25:18;-0.70;99.90
22081;DHT22;11207;59.512;18.050;2023-03-01T07:27:43;-0.60;99.90
22081;DHT22;11207;59.512;18.050;2023-03-01T07:30:10;-0.60;99.90
22081;DHT22;11207;59.512;18.050;2023-03-01T07:32:36;-0.60;99.90
22081;DHT22;11207;59.512;18.050;2023-03-01T07:35:01;-0.50;99.90
22081;DHT22;11207;59.512;18.050;2023-03-01T07:37:27;-0.40;99.90
22081;DHT22;11207;59.512;18.050;2023-03-01T07:39:52;-0.40;99.90
22081;DHT22;11207;59.512;18.050;2023-03-01T07:42:18;-0.40;99.90
22081;DHT22;11207;59.512;18.050;2023-03-01T07:44:43;-0.30;99.90
22081;DHT22;11207;59.512;18.050;2023-03-01T07:47:09;-0.30;99.90
22081;DHT22;11207;59.512;18.050;2023-03-01T07:49:35;-0.30;99.90
22081;DHT22;11207;59.512;18.050;2023-03-01T07:52:00;-0.10;99.90
22081;DHT22;11207;59.512;18.050;2023-03-01T07:54:26;-0.10;99.90
22081;DHT22;11207;59.512;18.050;2023-03-01T07:56:52;0.10;99.90
22081;DHT22;11207;59.512;18.050;2023-03-01T07:59:17;0.20;99.90
22081;DHT22;11207;59.512;18.050;2023-03-01T08:01:43;0.30;99.90
22081;DHT22;11207;59.512;18.050;2023-03-01T08:04:09;0.40;99.90
22081;DHT22;11207;59.512;18.050;2023-03-01T08:06:35;0.40;99.90
22081;DHT22;11207;59.512;18.050;2023-03-01T08:09:01;0.50;99.90
22081;DHT22;11207;59.512;18.050;2023-03-01T08:11:26;0.50;99.90
22081;DHT22;11207;59.512;18.050;2023-03-01T08:13:55;0.60;99.90
22081;DHT22;11207;59.512;18.050;2023-03-01T08:16:21;0.60;99.90
22081;DHT22;11207;59.512;18.050;2023-03-01T08:18:47;0.70;99.90
22081;DHT22;11207;59.512;18.050;2023-03-01T08:21:15;0.80;99.90
22081;DHT22;11207;59.512;18.050;2023-03-01T08:23:42;0.90;99.90
22081;DHT22;11207;59.512;18.050;2023-03-01T08:26:13;0.90;99.90
22081;DHT22;11207;59.512;18.050;2023-03-01T08:28:40;1.10;99.90
22081;DHT22;11207;59.512;18.050;2023-03-01T08:31:27;1.20;99.90
22081;DHT22;11207;59.512;18.050;2023-03-01T08:33:57;1.20;99.90
22081;DHT22;11207;59.512;18.050;2023-03-01T08:36:27;1.40;99.90
22081;DHT22;11207;59.512;18.050;2023-03-01T08:38:54;1.40;99.90
22081;DHT22;11207;59.512;18.050;2023-03-01T08:41:20;1.50;99.90
22081;DHT22;11207;59.512;18.050;2023-03-01T08:43:46;1.60;99.90
22081;DHT22;11207;59.512;18.050;2023-03-01T08:46:12;1.70;99.90
22081;DHT22;11207;59.512;18.050;2023-03-01T08:48:38;1.80;99.90
22081;DHT22;11207;59.512;18.050;2023-03-01T08:51:12;1.80;99.90
22081;DHT22;11207;59.512;18.050;2023-03-01T08:53:39;1.90;99.90
22081;DHT22;11207;59.512;18.050;2023-03-01T08:56:05;2.00;99.90
22081;DHT22;11207;59.512;18.050;2023-03-01T08:58:31;2.00;99.90
22081;DHT22;11207;59.512;18.050;2023-03-01T09:00:57;2.20;99.90
22081;DHT22;11207;59.512;18.050;2023-03-01T09:03:24;2.20;99.90
22081;DHT22;11207;59.512;18.050;2023-03-01T09:05:51;2.20;99.90
22081;DHT22;11207;59.512;18.050;2023-03-01T09:08:17;2.30;99.90
22081;DHT22;11207;59.512;18.050;2023-03-01T09:10:43;2.50;99.90
22081;DHT22;11207;59.512;18.050;2023-03-01T09:13:09;2.60;99.90
22081;DHT22;11207;59.512;18.050;2023-03-01T09:15:37;2.70;99.90
22081;DHT22;11207;59.512;18.050;2023-03-01T09:18:03;2.70;99.90
22081;DHT22;11207;59.512;18.050;2023-03-01T09:20:31;2.80;99.90
22081;DHT22;11207;59.512;18.050;2023-03-01T09:22:57;2.90;99.90
22081;DHT22;11207;59.512;18.050;2023-03-01T09:25:23;3.00;99.90
22081;DHT22;11207;59.512;18.050;2023-03-01T09:27:53;3.10;99.90
22081;DHT22;11207;59.512;18.050;2023-03-01T09:30:18;3.10;99.90
22081;DHT22;11207;59.512;18.050;2023-03-01T09:32:44;3.20;99.90
22081;DHT22;11207;59.512;18.050;2023-03-01T09:35:11;3.30;99.90
22081;DHT22;11207;59.512;18.050;2023-03-01T09:37:37;3.40;99.90
22081;DHT22;11207;59.512;18.050;2023-03-01T09:40:06;3.50;99.90
22081;DHT22;11207;59.512;18.050;2023-03-01T09:42:34;3.50;99.90
22081;DHT22;11207;59.512;18.050;2023-03-01T09:45:11;3.60;99.90
22081;DHT22;11207;59.512;18.050;2023-03-01T09:47:40;3.60;99.90
22081;DHT22;11207;59.512;18.050;2023-03-01T09:52:46;3.70;99.90
22081;DHT22;11207;59.512;18.050;2023-03-01T09:55:20;3.80;99.90
22081;DHT22;11207;59.512;18.050;2023-03-01T10:00:50;4.00;99.90
22081;DHT22;11207;59.512;18.050;2023-03-01T10:03:24;4.10;99.90
22081;DHT22;11207;59.512;18.050;2023-03-01T10:06:19;4.10;99.90
22081;DHT22;11207;59.512;18.050;2023-03-01T10:08:56;4.20;99.90
22081;DHT22;11207;59.512;18.050;2023-03-01T10:11:26;4.30;99.90
22081;DHT22;11207;59.512;18.050;2023-03-01T10:19:42;4.40;99.90
22081;DHT22;11207;59.512;18.050;2023-03-01T10:22:16;4.50;99.90
22081;DHT22;11207;59.512;18.050;2023-03-01T10:24:43;4.50;99.90
22081;DHT22;11207;59.512;18.050;2023-03-01T10:27:52;4.50;99.90
22081;DHT22;11207;59.512;18.050;2023-03-01T10:30:20;4.70;99.90
22081;DHT22;11207;59.512;18.050;2023-03-01T10:32:49;4.80;99.90
22081;DHT22;11207;59.512;18.050;2023-03-01T10:35:28;4.90;99.90
22081;DHT22;11207;59.512;18.050;2023-03-01T10:38:05;4.80;99.90
22081;DHT22;11207;59.512;18.050;2023-03-01T10:40:32;4.90;99.90
22081;DHT22;11207;59.512;18.050;2023-03-01T10:43:01;5.10;99.90
22081;DHT22;11207;59.512;18.050;2023-03-01T10:45:38;5.10;99.90
22081;DHT22;11207;59.512;18.050;2023-03-01T10:48:22;5.20;99.90
22081;DHT22;11207;59.512;18.050;2023-03-01T10:51:14;5.20;99.90
22081;DHT22;11207;59.512;18.050;2023-03-01T10:53:59;5.30;99.90
22081;DHT22;11207;59.512;18.050;2023-03-01T10:56:26;5.40;99.90
22081;DHT22;11207;59.512;18.050;2023-03-01T10:59:01;5.50;99.90
22081;DHT22;11207;59.512;18.050;2023-03-01T11:01:34;5.50;99.90
22081;DHT22;11207;59.512;18.050;2023-03-01T11:06:33;5.60;99.90
22081;DHT22;11207;59.512;18.050;2023-03-01T11:09:23;5.80;99.90
22081;DHT22;11207;59.512;18.050;2023-03-01T11:11:57;5.90;99.90
22081;DHT22;11207;59.512;18.050;2023-03-01T11:14:28;5.90;99.90
22081;DHT22;11207;59.512;18.050;2023-03-01T11:17:13;5.90;99.90
22081;DHT22;11207;59.512;18.050;2023-03-01T11:19:40;6.00;99.90
22081;DHT22;11207;59.512;18.050;2023-03-01T11:22:17;6.00;99.90
22081;DHT22;11207;59.512;18.050;2023-03-01T11:24:47;6.20;99.90
22081;DHT22;11207;59.512;18.050;2023-03-01T11:27:24;6.10;99.90
22081;DHT22;11207;59.512;18.050;2023-03-01T11:30:15;6.20;99.90
22081;DHT22;11207;59.512;18.050;2023-03-01T11:32:48;6.30;99.90
22081;DHT22;11207;59.512;18.050;2023-03-01T11:35:22;6.40;99.90
22081;DHT22;11207;59.512;18.050;2023-03-01T11:40:28;6.50;99.90
22081;DHT22;11207;59.512;18.050;2023-03-01T11:48:50;6.70;99.90
22081;DHT22;11207;59.512;18.050;2023-03-01T11:51:25;6.80;99.90
22081;DHT22;11207;59.512;18.050;2023-03-01T12:06:15;7.10;99.90
22081;DHT22;11207;59.512;18.050;2023-03-01T12:14:47;7.30;99.90
22081;DHT22;11207;59.512;18.050;2023-03-01T12:20:03;7.40;99.90
22081;DHT22;11207;59.512;18.050;2023-03-01T12:22:58;7.50;99.90
22081;DHT22;11207;59.512;18.050;2023-03-01T12:25:47;7.50;99.90
22081;DHT22;11207;59.512;18.050;2023-03-01T12:36:52;7.60;99.90
22081;DHT22;11207;59.512;18.050;2023-03-01T12:40:01;7.70;99.90
22081;DHT22;11207;59.512;18.050;2023-03-01T12:42:46;7.70;99.90
22081;DHT22;11207;59.512;18.050;2023-03-01T12:46:02;7.70;99.90
22081;DHT22;11207;59.512;18.050;2023-03-01T12:51:15;7.70;99.90
22081;DHT22;11207;59.512;18.050;2023-03-01T12:53:46;7.70;99.90
22081;DHT22;11207;59.512;18.050;2023-03-01T12:56:16;7.90;99.90
22081;DHT22;11207;59.512;18.050;2023-03-01T12:59:17;7.80;99.90
22081;DHT22;11207;59.512;18.050;2023-03-01T13:01:49;7.80;99.90
22081;DHT22;11207;59.512;18.050;2023-03-01T13:10:40;7.80;99.90
22081;DHT22;11207;59.512;18.050;2023-03-01T13:13:14;7.70;99.90
22081;DHT22;11207;59.512;18.050;2023-03-01T13:15:43;7.70;99.90
22081;DHT22;11207;59.512;18.050;2023-03-01T13:26:07;7.70;99.90
22081;DHT22;11207;59.512;18.050;2023-03-01T13:33:56;7.80;99.90
22081;DHT22;11207;59.512;18.050;2023-03-01T13:50:02;7.80;99.90
22081;DHT22;11207;59.512;18.050;2023-03-01T13:52:37;7.80;99.90
22081;DHT22;11207;59.512;18.050;2023-03-01T13:55:14;7.70;99.90
22081;DHT22;11207;59.512;18.050;2023-03-01T13:57:46;7.70;99.90
22081;DHT22;11207;59.512;18.050;2023-03-01T14:00:35;7.90;99.90
22081;DHT22;11207;59.512;18.050;2023-03-01T14:03:04;7.90;99.90
22081;DHT22;11207;59.512;18.050;2023-03-01T14:05:31;8.10;99.90
22081;DHT22;11207;59.512;18.050;2023-03-01T14:07:56;8.00;99.90
22081;DHT22;11207;59.512;18.050;2023-03-01T14:10:25;8.10;99.90
22081;DHT22;11207;59.512;18.050;2023-03-01T14:13:20;7.90;99.90
22081;DHT22;11207;59.512;18.050;2023-03-01T14:16:20;7.90;99.90
22081;DHT22;11207;59.512;18.050;2023-03-01T14:19:03;7.80;99.90
22081;DHT22;11207;59.512;18.050;2023-03-01T14:21:31;7.80;99.90
22081;DHT22;11207;59.512;18.050;2023-03-01T14:23:57;7.70;99.90
22081;DHT22;11207;59.512;18.050;2023-03-01T14:26:24;7.70;99.90
22081;DHT22;11207;59.512;18.050;2023-03-01T14:28:50;7.60;99.90
22081;DHT22;11207;59.512;18.050;2023-03-01T14:31:38;7.50;99.90
22081;DHT22;11207;59.512;18.050;2023-03-01T14:34:04;7.50;99.90
22081;DHT22;11207;59.512;18.050;2023-03-01T14:36:32;7.50;99.90
22081;DHT22;11207;59.512;18.050;2023-03-01T14:38:59;7.40;99.90
22081;DHT22;11207;59.512;18.050;2023-03-01T14:41:34;7.40;99.90
22081;DHT22;11207;59.512;18.050;2023-03-01T14:44:05;7.30;99.90
22081;DHT22;11207;59.512;18.050;2023-03-01T14:46:42;7.30;99.90
22081;DHT22;11207;59.512;18.050;2023-03-01T14:49:22;7.20;99.90
22081;DHT22;11207;59.512;18.050;2023-03-01T14:51:59;7.20;99.90
22081;DHT22;11207;59.512;18.050;2023-03-01T14:54:46;7.10;99.90
22081;DHT22;11207;59.512;18.050;2023-03-01T14:57:30;7.10;99.90
22081;DHT22;11207;59.512;18.050;2023-03-01T15:00:04;6.90;99.90
22081;DHT22;11207;59.512;18.050;2023-03-01T15:02:32;6.90;99.90
22081;DHT22;11207;59.512;18.050;2023-03-01T15:05:01;6.80;99.90
22081;DHT22;11207;59.512;18.050;2023-03-01T15:07:33;6.70;99.90
22081;DHT22;11207;59.512;18.050;2023-03-01T15:10:00;6.70;99.90
22081;DHT22;11207;59.512;18.050;2023-03-01T15:12:40;6.70;99.90
22081;DHT22;11207;59.512;18.050;2023-03-01T15:17:56;6.60;99.90
22081;DHT22;11207;59.512;18.050;2023-03-01T15:20:24;6.50;99.90
22081;DHT22;11207;59.512;18.050;2023-03-01T15:22:53;6.30;99.90
22081;DHT22;11207;59.512;18.050;2023-03-01T15:25:23;6.30;99.90
22081;DHT22;11207;59.512;18.050;2023-03-01T15:27:51;6.30;99.90
22081;DHT22;11207;59.512;18.050;2023-03-01T15:30:21;6.20;99.90
22081;DHT22;11207;59.512;18.050;2023-03-01T15:32:48;6.10;99.90
22081;DHT22;11207;59.512;18.050;2023-03-01T15:35:45;6.00;99.90
22081;DHT22;11207;59.512;18.050;2023-03-01T15:41:01;6.20;99.90
22081;DHT22;11207;59.512;18.050;2023-03-01T15:43:46;6.20;99.90
22081;DHT22;11207;59.512;18.050;2023-03-01T15:48:49;6.40;99.90
22081;DHT22;11207;59.512;18.050;2023-03-01T15:51:18;6.40;99.90
22081;DHT22;11207;59.512;18.050;2023-03-01T15:53:50;6.40;99.90
22081;DHT22;11207;59.512;18.050;2023-03-01T15:56:15;6.40;99.90
22081;DHT22;11207;59.512;18.050;2023-03-01T15:58:41;6.50;99.90
22081;DHT22;11207;59.512;18.050;2023-03-01T16:01:15;6.40;99.90
22081;DHT22;11207;59.512;18.050;2023-03-01T16:03:42;6.40;99.90
22081;DHT22;11207;59.512;18.050;2023-03-01T16:06:12;6.40;99.90
22081;DHT22;11207;59.512;18.050;2023-03-01T16:08:38;6.40;99.90
22081;DHT22;11207;59.512;18.050;2023-03-01T16:11:18;6.30;99.90
22081;DHT22;11207;59.512;18.050;2023-03-01T16:13:44;6.30;99.90
22081;DHT22;11207;59.512;18.050;2023-03-01T16:16:11;6.30;99.90
22081;DHT22;11207;59.512;18.050;2023-03-01T16:18:41;6.20;99.90
22081;DHT22;11207;59.512;18.050;2023-03-01T16:21:06;6.30;99.90
22081;DHT22;11207;59.512;18.050;2023-03-01T16:23:32;6.20;99.90
22081;DHT22;11207;59.512;18.050;2023-03-01T16:26:01;6.30;99.90
22081;DHT22;11207;59.512;18.050;2023-03-01T16:28:26;6.20;99.90
22081;DHT22;11207;59.512;18.050;2023-03-01T16:30:52;6.10;99.90
22081;DHT22;11207;59.512;18.050;2023-03-01T16:33:18;6.10;99.90
22081;DHT22;11207;59.512;18.050;2023-03-01T16:35:43;6.10;99.90
22081;DHT22;11207;59.512;18.050;2023-03-01T16:38:10;6.10;99.90
22081;DHT22;11207;59.512;18.050;2023-03-01T16:40:35;6.10;99.90
22081;DHT22;11207;59.512;18.050;2023-03-01T16:43:01;6.00;99.90
22081;DHT22;11207;59.512;18.050;2023-03-01T16:45:32;5.90;99.90
22081;DHT22;11207;59.512;18.050;2023-03-01T16:47:58;6.00;99.90
22081;DHT22;11207;59.512;18.050;2023-03-01T16:50:24;5.80;99.90
22081;DHT22;11207;59.512;18.050;2023-03-01T16:52:50;5.80;99.90
22081;DHT22;11207;59.512;18.050;2023-03-01T16:55:17;6.00;99.90
22081;DHT22;11207;59.512;18.050;2023-03-01T16:57:43;6.00;99.90
22081;DHT22;11207;59.512;18.050;2023-03-01T17:00:11;6.00;99.90
22081;DHT22;11207;59.512;18.050;2023-03-01T17:02:38;5.90;99.90
22081;DHT22;11207;59.512;18.050;2023-03-01T17:05:05;5.80;99.90
22081;DHT22;11207;59.512;18.050;2023-03-01T17:07:32;5.70;99.90
22081;DHT22;11207;59.512;18.050;2023-03-01T17:10:00;5.60;99.90
22081;DHT22;11207;59.512;18.050;2023-03-01T17:12:25;5.60;99.90
22081;DHT22;11207;59.512;18.050;2023-03-01T17:14:51;5.50;99.90
22081;DHT22;11207;59.512;18.050;2023-03-01T17:17:17;5.40;99.90
22081;DHT22;11207;59.512;18.050;2023-03-01T17:19:42;5.50;99.90
22081;DHT22;11207;59.512;18.050;2023-03-01T17:22:10;5.40;99.90
22081;DHT22;11207;59.512;18.050;2023-03-01T17:24:39;5.50;99.90
22081;DHT22;11207;59.512;18.050;2023-03-01T17:27:06;5.40;99.90
22081;DHT22;11207;59.512;18.050;2023-03-01T17:29:32;5.50;99.90